»·PEaware :: N1718G KYKM-S31

N1718G :: KYKM-S31

FLIGHT INFORMATION

Flight Status: Arrived
Operator: Privately registered:
United States
More flights under this callsign
Pilot: Spencer M. (27733)
Aircraft: CESSNA 206 STATIONAIR
(C206)
More flights by this aircraft type
Origin: KYKM Yakima Air Term/Mcallister
United States
Destination: S31 Lopez Island
United States
More flights between these airports :: More routes between these airports
Route: WENAS7 TITON V4 SEA V495 ORCUS
File this flight plan on PilotEdge
Remarks:
Altitude:
(Current/Filed)
10,000ft
Speed:
(Current/Filed)
160kts
Departed: 04-May-20 11:08 AM
Arrived: 04-May-20 12:14 PM
Distance/Time
Traveled:
150nm/1:05
Distance/Time
To Go:
Arrived

Flight Plot

Page will automatically refresh every two minutes.


Map Options




Map Legend


Flown Route
Filed Route
Departure Airport
Arrival Airport
Navaid (VOR, NDB)
Fix

Horizontal Profiles

Position Reports

Time Latitude Longitude Heading Altitude Ground
Speed
04-May-20 10:48 46.569735 -120.537502 90 1059ft 0kts
04-May-20 10:49 46.569735 -120.537502 90 1059ft 0kts
04-May-20 10:50 46.569735 -120.537502 90 1059ft 0kts
04-May-20 10:51 46.569735 -120.537502 90 1059ft 0kts
04-May-20 10:52 46.569735 -120.537502 90 1059ft 0kts
04-May-20 10:53 46.569735 -120.537502 90 1059ft 0kts
04-May-20 10:54 46.569735 -120.537502 90 1059ft 0kts
04-May-20 10:55 46.569735 -120.537502 90 1059ft 0kts
04-May-20 10:56 46.569735 -120.537502 90 1059ft 0kts
04-May-20 10:57 46.569735 -120.537502 90 1059ft 0kts
04-May-20 10:58 46.569735 -120.537481 90 1059ft 0kts
04-May-20 10:59 46.569220 -120.537383 216 1059ft 3kts
04-May-20 11:00 46.568316 -120.537807 120 1059ft 8kts
04-May-20 11:01 46.567192 -120.533487 110 1051ft 12kts
04-May-20 11:02 46.566599 -120.531327 176 1047ft 0kts
04-May-20 11:03 46.566599 -120.531327 176 1047ft 0kts
04-May-20 11:04 46.566599 -120.531327 176 1047ft 0kts
04-May-20 11:05 46.566589 -120.531326 177 1047ft 1kts
04-May-20 11:06 46.565971 -120.533265 290 1050ft 40kts
04-May-20 11:07 46.571914 -120.572346 247 2057ft 119kts
04-May-20 11:08 46.566547 -120.617078 293 3586ft 116kts
04-May-20 11:09 46.585737 -120.660820 319 4517ft 137kts
04-May-20 11:10 46.621663 -120.650349 19 5357ft 137kts
04-May-20 11:12 46.656056 -120.626407 1 6151ft 135kts
04-May-20 11:13 46.676962 -120.666358 300 6959ft 132kts
04-May-20 11:14 46.697267 -120.710760 303 7759ft 132kts
04-May-20 11:15 46.718161 -120.754800 302 8562ft 132kts
04-May-20 11:16 46.739017 -120.798802 301 9364ft 132kts
04-May-20 11:17 46.760123 -120.843437 301 10002ft 142kts
04-May-20 11:18 46.784419 -120.894795 301 10003ft 159kts
04-May-20 11:19 46.809714 -120.948418 301 9999ft 161kts
04-May-20 11:20 46.835193 -121.002551 301 9996ft 161kts
04-May-20 11:21 46.860544 -121.056528 301 9993ft 161kts
04-May-20 11:22 46.886019 -121.110875 300 9991ft 162kts
04-May-20 11:23 46.911464 -121.165270 300 9991ft 162kts
04-May-20 11:24 46.937029 -121.220036 300 9988ft 163kts
04-May-20 11:25 46.962750 -121.275240 300 9975ft 164kts
04-May-20 11:26 46.988510 -121.330630 300 9962ft 165kts
04-May-20 11:27 47.014338 -121.386279 301 9949ft 165kts
04-May-20 11:27 47.035849 -121.432713 301 9939ft 165kts
04-May-20 11:29 47.066043 -121.498011 301 9938ft 165kts
04-May-20 11:30 47.091759 -121.553753 301 9941ft 165kts
04-May-20 11:30 47.113277 -121.600482 301 9942ft 165kts
04-May-20 11:31 47.138976 -121.656396 300 9946ft 164kts
04-May-20 11:33 47.168773 -121.721364 300 10005ft 162kts
04-May-20 11:33 47.189820 -121.767372 300 10020ft 164kts
04-May-20 11:34 47.215421 -121.823405 300 10017ft 165kts
04-May-20 11:35 47.241055 -121.879626 300 10016ft 165kts
04-May-20 11:36 47.266648 -121.935875 300 10016ft 165kts
04-May-20 11:37 47.292177 -121.992097 300 10019ft 165kts
04-May-20 11:38 47.317707 -122.048439 300 10021ft 165kts
04-May-20 11:39 47.343050 -122.104485 300 10024ft 164kts
04-May-20 11:40 47.368382 -122.160589 300 10026ft 160kts
04-May-20 11:41 47.392860 -122.214922 298 10008ft 158kts
04-May-20 11:42 47.417066 -122.268822 298 10009ft 157kts
04-May-20 11:43 47.445809 -122.317498 321 10011ft 164kts
04-May-20 11:44 47.484882 -122.353222 323 10013ft 165kts
04-May-20 11:45 47.524387 -122.388353 323 10016ft 166kts
04-May-20 11:46 47.564207 -122.423700 323 10017ft 167kts
04-May-20 11:47 47.604005 -122.459070 323 10015ft 166kts
04-May-20 11:48 47.643642 -122.494363 323 10014ft 166kts
04-May-20 11:49 47.683193 -122.529642 323 10013ft 166kts
04-May-20 11:50 47.722663 -122.564911 323 10013ft 165kts
04-May-20 11:51 47.762011 -122.600138 323 10013ft 165kts
04-May-20 11:52 47.801132 -122.635221 323 10015ft 164kts
04-May-20 11:53 47.840427 -122.670522 323 10018ft 164kts
04-May-20 11:54 47.879542 -122.705719 322 10025ft 164kts
04-May-20 11:55 47.919720 -122.742019 326 9631ft 175kts
04-May-20 11:56 47.961755 -122.779899 327 9042ft 177kts
04-May-20 11:57 48.003673 -122.817819 327 8453ft 176kts
04-May-20 11:58 48.045345 -122.855627 327 7865ft 175kts
04-May-20 11:59 48.086840 -122.893330 328 7275ft 174kts
04-May-20 12:00 48.128435 -122.931198 329 6673ft 178kts
04-May-20 12:01 48.170228 -122.971498 328 6078ft 178kts
04-May-20 12:02 48.209911 -123.011182 328 6037ft 168kts
04-May-20 12:03 48.248777 -123.050323 328 6035ft 168kts
04-May-20 12:04 48.287816 -123.089455 328 5714ft 168kts
04-May-20 12:05 48.328463 -123.124154 343 5206ft 166kts
04-May-20 12:06 48.364963 -123.096410 43 4696ft 148kts
04-May-20 12:07 48.396390 -123.057939 46 3934ft 139kts
04-May-20 12:08 48.424371 -123.020761 40 2818ft 129kts
04-May-20 12:09 48.449716 -122.993945 67 1984ft 98kts
04-May-20 12:10 48.454696 -122.964304 81 1488ft 65kts
04-May-20 12:11 48.465441 -122.944261 34 777ft 57kts
04-May-20 12:12 48.480274 -122.937764 3 177ft 47kts
04-May-20 12:13 48.485318 -122.937103 359 194ft 13kts

Navigation Log

Ident Type
Flight plan parsing failed, navigation log unavailable